Aviation Services » Trend Forecast Sunday, April 30, 2017
 Trend Forecast

METAR NVVV 300800Z 13007KT 9000 SHRA FEW010 BKN018 FEW020CB OVC090 25/24 Q1009 RMK NIL               INTER 0800/1000 8000 TSRA SCT010 BKN016 FEW018CB OVC080=

METAR NVSS 300800Z VRB02KT 5000 TSRA SCT020 FEW022CB OVC110 26/25 Q1008 RMK NIL                           INTER 0800/1000 4000 +TSRA SCT012 BKN018 FEW020CB OVC080=